sensor_id;sensor_type;location;lat;lon;timestamp;P1;durP1;ratioP1;P2;durP2;ratioP2
30617;SDS011;17384;51.214;9.202;2023-04-23T00:00:06;7.55;;;3.95;;
30617;SDS011;17384;51.214;9.202;2023-04-23T00:02:36;5.80;;;4.03;;
30617;SDS011;17384;51.214;9.202;2023-04-23T00:05:03;4.47;;;3.83;;
30617;SDS011;17384;51.214;9.202;2023-04-23T00:07:32;5.65;;;3.45;;
30617;SDS011;17384;51.214;9.202;2023-04-23T00:09:58;3.70;;;3.13;;
30617;SDS011;17384;51.214;9.202;2023-04-23T00:12:25;5.15;;;3.65;;
30617;SDS011;17384;51.214;9.202;2023-04-23T00:14:51;5.60;;;3.80;;
30617;SDS011;17384;51.214;9.202;2023-04-23T00:17:17;7.03;;;4.15;;
30617;SDS011;17384;51.214;9.202;2023-04-23T00:19:43;7.88;;;4.45;;
30617;SDS011;17384;51.214;9.202;2023-04-23T00:22:10;6.55;;;4.38;;
30617;SDS011;17384;51.214;9.202;2023-04-23T00:24:37;8.13;;;4.50;;
30617;SDS011;17384;51.214;9.202;2023-04-23T00:27:03;9.13;;;5.00;;
30617;SDS011;17384;51.214;9.202;2023-04-23T00:29:29;9.05;;;4.68;;
30617;SDS011;17384;51.214;9.202;2023-04-23T00:31:54;4.90;;;3.95;;
30617;SDS011;17384;51.214;9.202;2023-04-23T00:34:20;7.40;;;4.88;;
30617;SDS011;17384;51.214;9.202;2023-04-23T00:36:45;8.68;;;5.20;;
30617;SDS011;17384;51.214;9.202;2023-04-23T00:39:11;9.40;;;5.57;;
30617;SDS011;17384;51.214;9.202;2023-04-23T00:41:36;9.98;;;5.68;;
30617;SDS011;17384;51.214;9.202;2023-04-23T00:44:02;8.13;;;5.25;;
30617;SDS011;17384;51.214;9.202;2023-04-23T00:46:27;9.82;;;5.43;;
30617;SDS011;17384;51.214;9.202;2023-04-23T00:48:53;9.40;;;5.97;;
30617;SDS011;17384;51.214;9.202;2023-04-23T00:51:22;10.63;;;5.88;;
30617;SDS011;17384;51.214;9.202;2023-04-23T00:53:48;11.63;;;5.50;;
30617;SDS011;17384;51.214;9.202;2023-04-23T00:56:14;10.35;;;5.90;;
30617;SDS011;17384;51.214;9.202;2023-04-23T00:58:41;8.80;;;6.10;;
30617;SDS011;17384;51.214;9.202;2023-04-23T01:01:07;9.38;;;6.47;;
30617;SDS011;17384;51.214;9.202;2023-04-23T01:03:34;9.85;;;6.45;;
30617;SDS011;17384;51.214;9.202;2023-04-23T01:06:01;8.77;;;5.93;;
30617;SDS011;17384;51.214;9.202;2023-04-23T01:08:27;8.73;;;6.72;;
30617;SDS011;17384;51.214;9.202;2023-04-23T01:10:55;12.00;;;5.88;;
30617;SDS011;17384;51.214;9.202;2023-04-23T01:13:22;6.88;;;6.05;;
30617;SDS011;17384;51.214;9.202;2023-04-23T01:15:50;10.25;;;7.22;;
30617;SDS011;17384;51.214;9.202;2023-04-23T01:18:16;13.27;;;7.10;;
30617;SDS011;17384;51.214;9.202;2023-04-23T01:20:44;9.40;;;6.70;;
30617;SDS011;17384;51.214;9.202;2023-04-23T01:23:09;9.77;;;6.93;;
30617;SDS011;17384;51.214;9.202;2023-04-23T01:25:36;11.63;;;7.75;;
30617;SDS011;17384;51.214;9.202;2023-04-23T01:28:01;11.30;;;7.72;;
30617;SDS011;17384;51.214;9.202;2023-04-23T01:30:27;9.90;;;7.60;;
30617;SDS011;17384;51.214;9.202;2023-04-23T01:32:53;9.15;;;7.32;;
30617;SDS011;17384;51.214;9.202;2023-04-23T01:35:20;10.63;;;7.03;;
30617;SDS011;17384;51.214;9.202;2023-04-23T01:37:45;10.32;;;7.60;;
30617;SDS011;17384;51.214;9.202;2023-04-23T01:40:13;8.20;;;7.20;;
30617;SDS011;17384;51.214;9.202;2023-04-23T01:42:38;11.05;;;6.80;;
30617;SDS011;17384;51.214;9.202;2023-04-23T01:45:04;11.05;;;7.43;;
30617;SDS011;17384;51.214;9.202;2023-04-23T01:47:32;10.55;;;7.18;;
30617;SDS011;17384;51.214;9.202;2023-04-23T01:49:58;13.68;;;7.53;;
30617;SDS011;17384;51.214;9.202;2023-04-23T01:52:24;9.68;;;7.45;;
30617;SDS011;17384;51.214;9.202;2023-04-23T01:54:49;12.90;;;7.88;;
30617;SDS011;17384;51.214;9.202;2023-04-23T01:57:15;11.93;;;7.72;;
30617;SDS011;17384;51.214;9.202;2023-04-23T01:59:47;12.15;;;7.72;;
30617;SDS011;17384;51.214;9.202;2023-04-23T02:02:13;15.68;;;6.75;;
30617;SDS011;17384;51.214;9.202;2023-04-23T02:04:39;11.63;;;7.07;;
30617;SDS011;17384;51.214;9.202;2023-04-23T02:07:06;12.10;;;8.00;;
30617;SDS011;17384;51.214;9.202;2023-04-23T02:09:31;12.32;;;7.22;;
30617;SDS011;17384;51.214;9.202;2023-04-23T02:11:57;12.40;;;7.82;;
30617;SDS011;17384;51.214;9.202;2023-04-23T02:14:22;9.50;;;6.50;;
30617;SDS011;17384;51.214;9.202;2023-04-23T02:16:47;8.18;;;5.22;;
30617;SDS011;17384;51.214;9.202;2023-04-23T02:19:13;6.22;;;5.15;;
30617;SDS011;17384;51.214;9.202;2023-04-23T02:21:40;9.93;;;4.15;;
30617;SDS011;17384;51.214;9.202;2023-04-23T02:24:06;6.00;;;4.03;;
30617;SDS011;17384;51.214;9.202;2023-04-23T02:26:32;7.57;;;2.95;;
30617;SDS011;17384;51.214;9.202;2023-04-23T02:28:57;4.47;;;3.05;;
30617;SDS011;17384;51.214;9.202;2023-04-23T02:31:22;3.88;;;2.97;;
30617;SDS011;17384;51.214;9.202;2023-04-23T02:33:48;3.38;;;2.80;;
30617;SDS011;17384;51.214;9.202;2023-04-23T02:36:14;4.88;;;3.03;;
30617;SDS011;17384;51.214;9.202;2023-04-23T02:38:40;4.22;;;3.20;;
30617;SDS011;17384;51.214;9.202;2023-04-23T02:41:06;5.22;;;3.70;;
30617;SDS011;17384;51.214;9.202;2023-04-23T02:43:32;4.97;;;3.38;;
30617;SDS011;17384;51.214;9.202;2023-04-23T02:45:58;6.30;;;4.22;;
30617;SDS011;17384;51.214;9.202;2023-04-23T02:48:23;4.90;;;3.47;;
30617;SDS011;17384;51.214;9.202;2023-04-23T02:50:51;5.93;;;4.20;;
30617;SDS011;17384;51.214;9.202;2023-04-23T02:53:16;4.90;;;4.03;;
30617;SDS011;17384;51.214;9.202;2023-04-23T02:55:42;8.45;;;4.22;;
30617;SDS011;17384;51.214;9.202;2023-04-23T02:58:07;6.35;;;3.95;;
30617;SDS011;17384;51.214;9.202;2023-04-23T03:00:33;8.13;;;4.57;;
30617;SDS011;17384;51.214;9.202;2023-04-23T03:02:58;4.90;;;4.03;;
30617;SDS011;17384;51.214;9.202;2023-04-23T03:05:24;8.60;;;4.00;;
30617;SDS011;17384;51.214;9.202;2023-04-23T03:07:49;7.15;;;4.65;;
30617;SDS011;17384;51.214;9.202;2023-04-23T03:10:15;5.57;;;4.50;;
30617;SDS011;17384;51.214;9.202;2023-04-23T03:12:40;6.90;;;4.63;;
30617;SDS011;17384;51.214;9.202;2023-04-23T03:15:06;5.90;;;4.07;;
30617;SDS011;17384;51.214;9.202;2023-04-23T03:17:31;5.22;;;4.35;;
30617;SDS011;17384;51.214;9.202;2023-04-23T03:19:57;6.32;;;4.68;;
30617;SDS011;17384;51.214;9.202;2023-04-23T03:22:22;7.28;;;4.82;;
30617;SDS011;17384;51.214;9.202;2023-04-23T03:24:47;7.30;;;4.50;;
30617;SDS011;17384;51.214;9.202;2023-04-23T03:27:13;7.70;;;5.28;;
30617;SDS011;17384;51.214;9.202;2023-04-23T03:29:38;6.03;;;4.53;;
30617;SDS011;17384;51.214;9.202;2023-04-23T03:32:04;5.20;;;4.70;;
30617;SDS011;17384;51.214;9.202;2023-04-23T03:34:29;7.72;;;5.03;;
30617;SDS011;17384;51.214;9.202;2023-04-23T03:36:54;6.38;;;5.38;;
30617;SDS011;17384;51.214;9.202;2023-04-23T03:39:20;5.80;;;5.20;;
30617;SDS011;17384;51.214;9.202;2023-04-23T03:41:45;6.50;;;4.95;;
30617;SDS011;17384;51.214;9.202;2023-04-23T03:44:11;7.15;;;4.95;;
30617;SDS011;17384;51.214;9.202;2023-04-23T03:46:36;7.50;;;5.68;;
30617;SDS011;17384;51.214;9.202;2023-04-23T03:49:01;6.78;;;5.25;;
30617;SDS011;17384;51.214;9.202;2023-04-23T03:51:27;10.70;;;5.80;;
30617;SDS011;17384;51.214;9.202;2023-04-23T03:53:52;8.35;;;5.50;;
30617;SDS011;17384;51.214;9.202;2023-04-23T03:56:18;9.88;;;5.30;;
30617;SDS011;17384;51.214;9.202;2023-04-23T03:58:43;7.03;;;5.30;;
30617;SDS011;17384;51.214;9.202;2023-04-23T04:01:08;7.00;;;5.57;;
30617;SDS011;17384;51.214;9.202;2023-04-23T04:03:34;5.57;;;5.00;;
30617;SDS011;17384;51.214;9.202;2023-04-23T04:06:00;11.60;;;6.47;;
30617;SDS011;17384;51.214;9.202;2023-04-23T04:08:25;9.00;;;5.70;;
30617;SDS011;17384;51.214;9.202;2023-04-23T04:10:51;8.60;;;5.72;;
30617;SDS011;17384;51.214;9.202;2023-04-23T04:13:16;7.85;;;5.82;;
30617;SDS011;17384;51.214;9.202;2023-04-23T04:15:42;8.50;;;5.72;;
30617;SDS011;17384;51.214;9.202;2023-04-23T04:18:07;6.47;;;5.68;;
30617;SDS011;17384;51.214;9.202;2023-04-23T04:20:33;9.45;;;5.78;;
30617;SDS011;17384;51.214;9.202;2023-04-23T04:22:58;9.55;;;7.40;;
30617;SDS011;17384;51.214;9.202;2023-04-23T04:25:24;9.98;;;6.57;;
30617;SDS011;17384;51.214;9.202;2023-04-23T04:27:49;10.73;;;7.68;;
30617;SDS011;17384;51.214;9.202;2023-04-23T04:30:15;11.30;;;7.35;;
30617;SDS011;17384;51.214;9.202;2023-04-23T04:32:40;8.35;;;6.93;;
30617;SDS011;17384;51.214;9.202;2023-04-23T04:35:07;10.93;;;7.07;;
30617;SDS011;17384;51.214;9.202;2023-04-23T04:37:33;10.57;;;7.50;;
30617;SDS011;17384;51.214;9.202;2023-04-23T04:39:59;13.30;;;7.78;;
30617;SDS011;17384;51.214;9.202;2023-04-23T04:42:25;9.10;;;7.50;;
30617;SDS011;17384;51.214;9.202;2023-04-23T04:44:51;9.73;;;7.63;;
30617;SDS011;17384;51.214;9.202;2023-04-23T04:47:17;10.85;;;8.10;;
30617;SDS011;17384;51.214;9.202;2023-04-23T04:49:43;10.45;;;8.10;;
30617;SDS011;17384;51.214;9.202;2023-04-23T04:52:09;10.05;;;7.63;;
30617;SDS011;17384;51.214;9.202;2023-04-23T04:54:35;12.35;;;8.07;;
30617;SDS011;17384;51.214;9.202;2023-04-23T04:57:00;12.80;;;9.15;;
30617;SDS011;17384;51.214;9.202;2023-04-23T04:59:26;10.68;;;8.30;;
30617;SDS011;17384;51.214;9.202;2023-04-23T05:01:52;15.77;;;8.02;;
30617;SDS011;17384;51.214;9.202;2023-04-23T05:04:18;13.52;;;9.30;;
30617;SDS011;17384;51.214;9.202;2023-04-23T05:06:43;16.80;;;8.93;;
30617;SDS011;17384;51.214;9.202;2023-04-23T05:09:09;14.90;;;8.63;;
30617;SDS011;17384;51.214;9.202;2023-04-23T05:11:35;11.80;;;7.78;;
30617;SDS011;17384;51.214;9.202;2023-04-23T05:14:01;15.70;;;9.15;;
30617;SDS011;17384;51.214;9.202;2023-04-23T05:16:28;10.90;;;8.57;;
30617;SDS011;17384;51.214;9.202;2023-04-23T05:18:54;11.95;;;8.82;;
30617;SDS011;17384;51.214;9.202;2023-04-23T05:21:19;11.48;;;8.32;;
30617;SDS011;17384;51.214;9.202;2023-04-23T05:23:45;12.07;;;8.70;;
30617;SDS011;17384;51.214;9.202;2023-04-23T05:26:10;12.82;;;8.70;;
30617;SDS011;17384;51.214;9.202;2023-04-23T05:28:36;12.88;;;9.20;;
30617;SDS011;17384;51.214;9.202;2023-04-23T05:31:01;14.93;;;9.60;;
30617;SDS011;17384;51.214;9.202;2023-04-23T05:33:27;12.93;;;9.90;;
30617;SDS011;17384;51.214;9.202;2023-04-23T05:35:52;16.42;;;11.43;;
30617;SDS011;17384;51.214;9.202;2023-04-23T05:38:19;15.68;;;10.50;;
30617;SDS011;17384;51.214;9.202;2023-04-23T05:40:44;15.23;;;10.77;;
30617;SDS011;17384;51.214;9.202;2023-04-23T05:43:10;16.52;;;11.45;;
30617;SDS011;17384;51.214;9.202;2023-04-23T05:45:36;15.02;;;11.45;;
30617;SDS011;17384;51.214;9.202;2023-04-23T05:48:01;19.90;;;11.75;;
30617;SDS011;17384;51.214;9.202;2023-04-23T05:50:27;20.25;;;11.95;;
30617;SDS011;17384;51.214;9.202;2023-04-23T05:52:53;16.38;;;11.68;;
30617;SDS011;17384;51.214;9.202;2023-04-23T05:55:19;17.27;;;12.00;;
30617;SDS011;17384;51.214;9.202;2023-04-23T05:57:45;16.52;;;12.00;;
30617;SDS011;17384;51.214;9.202;2023-04-23T06:00:11;19.05;;;12.02;;
30617;SDS011;17384;51.214;9.202;2023-04-23T06:02:37;17.50;;;12.82;;
30617;SDS011;17384;51.214;9.202;2023-04-23T06:05:04;20.02;;;12.38;;
30617;SDS011;17384;51.214;9.202;2023-04-23T06:07:30;18.92;;;12.73;;
30617;SDS011;17384;51.214;9.202;2023-04-23T06:09:56;17.95;;;12.65;;
30617;SDS011;17384;51.214;9.202;2023-04-23T06:12:22;22.20;;;13.88;;
30617;SDS011;17384;51.214;9.202;2023-04-23T06:14:47;18.23;;;13.13;;
30617;SDS011;17384;51.214;9.202;2023-04-23T06:17:13;16.05;;;12.00;;
30617;SDS011;17384;51.214;9.202;2023-04-23T06:19:38;16.48;;;11.63;;
30617;SDS011;17384;51.214;9.202;2023-04-23T06:22:05;18.85;;;12.40;;
30617;SDS011;17384;51.214;9.202;2023-04-23T06:24:31;15.52;;;11.30;;
30617;SDS011;17384;51.214;9.202;2023-04-23T06:26:58;16.73;;;10.40;;
30617;SDS011;17384;51.214;9.202;2023-04-23T06:29:23;16.73;;;11.85;;
30617;SDS011;17384;51.214;9.202;2023-04-23T06:31:48;16.05;;;10.35;;
30617;SDS011;17384;51.214;9.202;2023-04-23T06:34:14;14.88;;;9.90;;
30617;SDS011;17384;51.214;9.202;2023-04-23T06:36:39;15.00;;;11.07;;
30617;SDS011;17384;51.214;9.202;2023-04-23T06:39:07;17.13;;;11.25;;
30617;SDS011;17384;51.214;9.202;2023-04-23T06:41:32;19.90;;;12.68;;
30617;SDS011;17384;51.214;9.202;2023-04-23T06:43:58;19.13;;;12.82;;
30617;SDS011;17384;51.214;9.202;2023-04-23T06:46:23;20.52;;;12.18;;
30617;SDS011;17384;51.214;9.202;2023-04-23T06:48:49;21.75;;;13.18;;
30617;SDS011;17384;51.214;9.202;2023-04-23T06:51:14;16.00;;;12.10;;
30617;SDS011;17384;51.214;9.202;2023-04-23T06:53:40;17.58;;;12.75;;
30617;SDS011;17384;51.214;9.202;2023-04-23T06:56:06;20.65;;;12.68;;
30617;SDS011;17384;51.214;9.202;2023-04-23T06:58:33;19.17;;;12.30;;
30617;SDS011;17384;51.214;9.202;2023-04-23T07:00:59;19.15;;;12.20;;
30617;SDS011;17384;51.214;9.202;2023-04-23T07:03:26;17.85;;;12.93;;
30617;SDS011;17384;51.214;9.202;2023-04-23T07:05:52;14.50;;;10.43;;
30617;SDS011;17384;51.214;9.202;2023-04-23T07:08:18;17.33;;;11.77;;
30617;SDS011;17384;51.214;9.202;2023-04-23T07:10:45;16.40;;;10.55;;
30617;SDS011;17384;51.214;9.202;2023-04-23T07:13:10;17.35;;;11.32;;
30617;SDS011;17384;51.214;9.202;2023-04-23T07:15:36;12.88;;;9.27;;
30617;SDS011;17384;51.214;9.202;2023-04-23T07:18:02;14.43;;;10.68;;
30617;SDS011;17384;51.214;9.202;2023-04-23T07:20:28;15.77;;;11.05;;
30617;SDS011;17384;51.214;9.202;2023-04-23T07:22:53;12.75;;;9.07;;
30617;SDS011;17384;51.214;9.202;2023-04-23T07:25:18;14.68;;;9.38;;
30617;SDS011;17384;51.214;9.202;2023-04-23T07:27:46;14.50;;;9.50;;
30617;SDS011;17384;51.214;9.202;2023-04-23T07:30:12;11.77;;;9.15;;
30617;SDS011;17384;51.214;9.202;2023-04-23T07:32:38;12.52;;;9.63;;
30617;SDS011;17384;51.214;9.202;2023-04-23T07:35:04;15.85;;;10.90;;
30617;SDS011;17384;51.214;9.202;2023-04-23T07:37:30;12.32;;;9.32;;
30617;SDS011;17384;51.214;9.202;2023-04-23T07:39:56;12.65;;;9.43;;
30617;SDS011;17384;51.214;9.202;2023-04-23T07:42:21;16.55;;;9.38;;
30617;SDS011;17384;51.214;9.202;2023-04-23T07:44:47;11.68;;;8.85;;
30617;SDS011;17384;51.214;9.202;2023-04-23T07:47:12;14.00;;;9.95;;
30617;SDS011;17384;51.214;9.202;2023-04-23T07:49:38;12.77;;;9.55;;
30617;SDS011;17384;51.214;9.202;2023-04-23T07:52:03;11.60;;;8.63;;
30617;SDS011;17384;51.214;9.202;2023-04-23T07:54:29;10.07;;;7.55;;
30617;SDS011;17384;51.214;9.202;2023-04-23T07:56:54;14.20;;;8.52;;
30617;SDS011;17384;51.214;9.202;2023-04-23T07:59:21;12.25;;;7.50;;
30617;SDS011;17384;51.214;9.202;2023-04-23T08:01:46;10.52;;;7.47;;
30617;SDS011;17384;51.214;9.202;2023-04-23T08:04:12;10.57;;;7.53;;
30617;SDS011;17384;51.214;9.202;2023-04-23T08:06:37;11.35;;;7.93;;
30617;SDS011;17384;51.214;9.202;2023-04-23T08:09:03;9.27;;;7.03;;
30617;SDS011;17384;51.214;9.202;2023-04-23T08:11:34;9.95;;;7.50;;
30617;SDS011;17384;51.214;9.202;2023-04-23T08:13:59;9.25;;;6.90;;
30617;SDS011;17384;51.214;9.202;2023-04-23T08:16:25;9.75;;;6.43;;
30617;SDS011;17384;51.214;9.202;2023-04-23T08:18:51;9.02;;;6.53;;
30617;SDS011;17384;51.214;9.202;2023-04-23T08:21:17;9.07;;;6.65;;
30617;SDS011;17384;51.214;9.202;2023-04-23T08:23:42;9.68;;;6.22;;
30617;SDS011;17384;51.214;9.202;2023-04-23T08:26:07;8.80;;;6.18;;
30617;SDS011;17384;51.214;9.202;2023-04-23T08:28:34;11.23;;;5.78;;
30617;SDS011;17384;51.214;9.202;2023-04-23T08:30:59;6.72;;;4.88;;
30617;SDS011;17384;51.214;9.202;2023-04-23T08:33:25;5.60;;;5.00;;
30617;SDS011;17384;51.214;9.202;2023-04-23T08:35:51;13.63;;;4.72;;
30617;SDS011;17384;51.214;9.202;2023-04-23T08:38:17;8.43;;;6.18;;
30617;SDS011;17384;51.214;9.202;2023-04-23T08:40:42;9.20;;;5.80;;
30617;SDS011;17384;51.214;9.202;2023-04-23T08:43:18;7.18;;;5.55;;
30617;SDS011;17384;51.214;9.202;2023-04-23T08:45:47;8.25;;;5.95;;
30617;SDS011;17384;51.214;9.202;2023-04-23T08:48:13;8.27;;;5.68;;
30617;SDS011;17384;51.214;9.202;2023-04-23T08:50:42;8.90;;;6.28;;
30617;SDS011;17384;51.214;9.202;2023-04-23T08:53:08;11.65;;;7.05;;
30617;SDS011;17384;51.214;9.202;2023-04-23T08:55:34;11.07;;;7.20;;
30617;SDS011;17384;51.214;9.202;2023-04-23T08:58:00;11.40;;;6.95;;
30617;SDS011;17384;51.214;9.202;2023-04-23T09:00:30;9.85;;;6.95;;
30617;SDS011;17384;51.214;9.202;2023-04-23T09:02:57;9.13;;;6.70;;
30617;SDS011;17384;51.214;9.202;2023-04-23T09:05:23;9.55;;;6.68;;
30617;SDS011;17384;51.214;9.202;2023-04-23T09:07:48;9.05;;;6.18;;
30617;SDS011;17384;51.214;9.202;2023-04-23T09:10:14;7.22;;;5.93;;
30617;SDS011;17384;51.214;9.202;2023-04-23T09:12:42;7.65;;;6.10;;
30617;SDS011;17384;51.214;9.202;2023-04-23T09:15:09;12.02;;;6.32;;
30617;SDS011;17384;51.214;9.202;2023-04-23T09:17:37;8.48;;;6.82;;
30617;SDS011;17384;51.214;9.202;2023-04-23T09:20:08;10.02;;;6.80;;
30617;SDS011;17384;51.214;9.202;2023-04-23T09:22:37;9.27;;;6.15;;
30617;SDS011;17384;51.214;9.202;2023-04-23T09:25:14;9.00;;;6.20;;
30617;SDS011;17384;51.214;9.202;2023-04-23T09:27:41;8.80;;;6.03;;
30617;SDS011;17384;51.214;9.202;2023-04-23T09:30:08;9.88;;;6.85;;
30617;SDS011;17384;51.214;9.202;2023-04-23T09:32:38;9.65;;;6.15;;
30617;SDS011;17384;51.214;9.202;2023-04-23T09:35:11;9.82;;;6.10;;
30617;SDS011;17384;51.214;9.202;2023-04-23T09:37:41;10.10;;;6.95;;
30617;SDS011;17384;51.214;9.202;2023-04-23T09:40:08;8.88;;;6.13;;
30617;SDS011;17384;51.214;9.202;2023-04-23T09:42:35;8.68;;;5.80;;
30617;SDS011;17384;51.214;9.202;2023-04-23T09:45:08;10.38;;;6.82;;
30617;SDS011;17384;51.214;9.202;2023-04-23T09:47:40;9.48;;;6.60;;
30617;SDS011;17384;51.214;9.202;2023-04-23T09:50:12;9.55;;;6.20;;
30617;SDS011;17384;51.214;9.202;2023-04-23T09:52:38;7.90;;;6.10;;
30617;SDS011;17384;51.214;9.202;2023-04-23T09:55:04;16.10;;;5.60;;
30617;SDS011;17384;51.214;9.202;2023-04-23T09:57:36;8.68;;;6.10;;
30617;SDS011;17384;51.214;9.202;2023-04-23T10:00:15;7.47;;;5.07;;
30617;SDS011;17384;51.214;9.202;2023-04-23T10:02:47;9.82;;;5.18;;
30617;SDS011;17384;51.214;9.202;2023-04-23T10:05:14;7.72;;;3.70;;
30617;SDS011;17384;51.214;9.202;2023-04-23T10:07:44;6.47;;;4.45;;
30617;SDS011;17384;51.214;9.202;2023-04-23T10:10:12;5.18;;;4.47;;
30617;SDS011;17384;51.214;9.202;2023-04-23T10:12:45;6.07;;;4.25;;
30617;SDS011;17384;51.214;9.202;2023-04-23T10:15:12;5.00;;;4.00;;
30617;SDS011;17384;51.214;9.202;2023-04-23T10:17:38;7.95;;;4.70;;
30617;SDS011;17384;51.214;9.202;2023-04-23T10:20:06;12.00;;;5.15;;
30617;SDS011;17384;51.214;9.202;2023-04-23T10:22:33;10.50;;;4.65;;
30617;SDS011;17384;51.214;9.202;2023-04-23T10:25:02;5.32;;;3.97;;
30617;SDS011;17384;51.214;9.202;2023-04-23T10:27:32;3.83;;;3.42;;
30617;SDS011;17384;51.214;9.202;2023-04-23T10:30:01;6.20;;;3.72;;
30617;SDS011;17384;51.214;9.202;2023-04-23T10:32:29;7.53;;;4.40;;
30617;SDS011;17384;51.214;9.202;2023-04-23T10:34:57;4.50;;;3.55;;
30617;SDS011;17384;51.214;9.202;2023-04-23T10:37:22;4.82;;;3.40;;
30617;SDS011;17384;51.214;9.202;2023-04-23T10:39:49;3.88;;;3.45;;
30617;SDS011;17384;51.214;9.202;2023-04-23T10:42:18;4.43;;;2.85;;
30617;SDS011;17384;51.214;9.202;2023-04-23T10:44:44;3.92;;;3.47;;
30617;SDS011;17384;51.214;9.202;2023-04-23T10:47:14;6.53;;;3.60;;
30617;SDS011;17384;51.214;9.202;2023-04-23T10:49:40;3.88;;;2.92;;
30617;SDS011;17384;51.214;9.202;2023-04-23T10:52:11;5.15;;;3.13;;
30617;SDS011;17384;51.214;9.202;2023-04-23T10:54:39;5.50;;;2.75;;
30617;SDS011;17384;51.214;9.202;2023-04-23T10:57:06;6.40;;;3.00;;
30617;SDS011;17384;51.214;9.202;2023-04-23T10:59:34;4.38;;;3.15;;
30617;SDS011;17384;51.214;9.202;2023-04-23T11:02:06;5.07;;;3.08;;
30617;SDS011;17384;51.214;9.202;2023-04-23T11:04:36;4.85;;;3.10;;
30617;SDS011;17384;51.214;9.202;2023-04-23T11:09:42;3.80;;;2.97;;
30617;SDS011;17384;51.214;9.202;2023-04-23T11:14:57;5.70;;;2.28;;
30617;SDS011;17384;51.214;9.202;2023-04-23T11:17:57;4.15;;;2.35;;
30617;SDS011;17384;51.214;9.202;2023-04-23T11:20:10;3.50;;;2.88;;
30617;SDS011;17384;51.214;9.202;2023-04-23T11:22:47;4.43;;;2.60;;
30617;SDS011;17384;51.214;9.202;2023-04-23T11:25:14;4.05;;;2.50;;
30617;SDS011;17384;51.214;9.202;2023-04-23T11:27:44;9.38;;;3.40;;
30617;SDS011;17384;51.214;9.202;2023-04-23T11:30:14;6.55;;;2.40;;
30617;SDS011;17384;51.214;9.202;2023-04-23T11:35:12;7.45;;;2.60;;
30617;SDS011;17384;51.214;9.202;2023-04-23T11:37:41;4.57;;;2.33;;
30617;SDS011;17384;51.214;9.202;2023-04-23T11:40:10;8.52;;;2.67;;
30617;SDS011;17384;51.214;9.202;2023-04-23T11:42:44;8.57;;;2.55;;
30617;SDS011;17384;51.214;9.202;2023-04-23T11:47:47;4.35;;;1.83;;
30617;SDS011;17384;51.214;9.202;2023-04-23T11:50:21;1.83;;;1.58;;
30617;SDS011;17384;51.214;9.202;2023-04-23T11:52:48;5.18;;;1.83;;
30617;SDS011;17384;51.214;9.202;2023-04-23T11:55:13;1.60;;;1.50;;
30617;SDS011;17384;51.214;9.202;2023-04-23T11:57:41;2.22;;;1.50;;
30617;SDS011;17384;51.214;9.202;2023-04-23T12:00:15;4.53;;;1.98;;
30617;SDS011;17384;51.214;9.202;2023-04-23T12:05:20;4.13;;;2.03;;
30617;SDS011;17384;51.214;9.202;2023-04-23T12:07:47;3.45;;;2.13;;
30617;SDS011;17384;51.214;9.202;2023-04-23T12:10:18;2.78;;;2.08;;
30617;SDS011;17384;51.214;9.202;2023-04-23T12:12:47;2.40;;;1.90;;
30617;SDS011;17384;51.214;9.202;2023-04-23T12:15:13;3.35;;;2.17;;
30617;SDS011;17384;51.214;9.202;2023-04-23T12:17:39;4.85;;;2.63;;
30617;SDS011;17384;51.214;9.202;2023-04-23T12:20:04;3.60;;;2.17;;
30617;SDS011;17384;51.214;9.202;2023-04-23T12:22:33;5.55;;;2.30;;
30617;SDS011;17384;51.214;9.202;2023-04-23T12:25:04;3.25;;;2.47;;
30617;SDS011;17384;51.214;9.202;2023-04-23T12:27:37;3.67;;;2.50;;
30617;SDS011;17384;51.214;9.202;2023-04-23T12:30:07;6.20;;;2.63;;
30617;SDS011;17384;51.214;9.202;2023-04-23T12:32:33;4.07;;;1.83;;
30617;SDS011;17384;51.214;9.202;2023-04-23T12:34:59;8.60;;;2.60;;
30617;SDS011;17384;51.214;9.202;2023-04-23T12:37:28;1.80;;;1.63;;
30617;SDS011;17384;51.214;9.202;2023-04-23T12:39:55;2.38;;;1.67;;
30617;SDS011;17384;51.214;9.202;2023-04-23T12:42:23;4.22;;;2.17;;
30617;SDS011;17384;51.214;9.202;2023-04-23T12:44:49;3.65;;;1.90;;
30617;SDS011;17384;51.214;9.202;2023-04-23T12:47:15;3.42;;;2.10;;
30617;SDS011;17384;51.214;9.202;2023-04-23T12:49:44;5.43;;;2.10;;
30617;SDS011;17384;51.214;9.202;2023-04-23T12:52:10;4.13;;;2.40;;
30617;SDS011;17384;51.214;9.202;2023-04-23T12:54:37;3.20;;;2.53;;
30617;SDS011;17384;51.214;9.202;2023-04-23T12:57:09;2.78;;;2.10;;
30617;SDS011;17384;51.214;9.202;2023-04-23T12:59:36;3.13;;;2.30;;
30617;SDS011;17384;51.214;9.202;2023-04-23T13:02:02;6.10;;;2.78;;
30617;SDS011;17384;51.214;9.202;2023-04-23T13:04:28;3.40;;;2.47;;
30617;SDS011;17384;51.214;9.202;2023-04-23T13:06:57;5.32;;;3.03;;
30617;SDS011;17384;51.214;9.202;2023-04-23T13:09:23;4.60;;;2.67;;
30617;SDS011;17384;51.214;9.202;2023-04-23T13:11:50;10.13;;;3.30;;
30617;SDS011;17384;51.214;9.202;2023-04-23T13:14:16;4.65;;;3.30;;
30617;SDS011;17384;51.214;9.202;2023-04-23T13:16:41;6.72;;;3.15;;
30617;SDS011;17384;51.214;9.202;2023-04-23T13:19:07;4.75;;;2.60;;
30617;SDS011;17384;51.214;9.202;2023-04-23T13:21:33;3.00;;;2.70;;
30617;SDS011;17384;51.214;9.202;2023-04-23T13:23:58;3.85;;;2.78;;
30617;SDS011;17384;51.214;9.202;2023-04-23T13:26:24;3.10;;;2.30;;
30617;SDS011;17384;51.214;9.202;2023-04-23T13:28:50;4.97;;;2.83;;
30617;SDS011;17384;51.214;9.202;2023-04-23T13:31:16;2.90;;;2.30;;
30617;SDS011;17384;51.214;9.202;2023-04-23T13:33:41;3.38;;;2.67;;
30617;SDS011;17384;51.214;9.202;2023-04-23T13:36:07;3.72;;;2.25;;
30617;SDS011;17384;51.214;9.202;2023-04-23T13:38:33;6.05;;;2.80;;
30617;SDS011;17384;51.214;9.202;2023-04-23T13:40:58;3.65;;;2.53;;
30617;SDS011;17384;51.214;9.202;2023-04-23T13:43:24;4.90;;;2.80;;
30617;SDS011;17384;51.214;9.202;2023-04-23T13:45:50;5.07;;;3.00;;
30617;SDS011;17384;51.214;9.202;2023-04-23T13:48:17;4.75;;;3.05;;
30617;SDS011;17384;51.214;9.202;2023-04-23T13:50:43;5.10;;;3.35;;
30617;SDS011;17384;51.214;9.202;2023-04-23T13:53:09;5.68;;;3.10;;
30617;SDS011;17384;51.214;9.202;2023-04-23T13:55:36;3.95;;;3.20;;
30617;SDS011;17384;51.214;9.202;2023-04-23T14:00:34;4.88;;;3.00;;
30617;SDS011;17384;51.214;9.202;2023-04-23T14:03:00;4.60;;;3.15;;
30617;SDS011;17384;51.214;9.202;2023-04-23T14:05:25;3.97;;;2.80;;
30617;SDS011;17384;51.214;9.202;2023-04-23T14:07:51;5.40;;;2.72;;
30617;SDS011;17384;51.214;9.202;2023-04-23T14:10:16;2.90;;;2.53;;
30617;SDS011;17384;51.214;9.202;2023-04-23T14:12:43;5.07;;;3.10;;
30617;SDS011;17384;51.214;9.202;2023-04-23T14:15:09;3.65;;;2.42;;
30617;SDS011;17384;51.214;9.202;2023-04-23T14:17:35;4.57;;;2.45;;
30617;SDS011;17384;51.214;9.202;2023-04-23T14:20:03;3.85;;;2.67;;
30617;SDS011;17384;51.214;9.202;2023-04-23T14:22:29;2.72;;;2.50;;
30617;SDS011;17384;51.214;9.202;2023-04-23T14:25:02;7.85;;;2.70;;
30617;SDS011;17384;51.214;9.202;2023-04-23T14:27:38;4.20;;;2.38;;
30617;SDS011;17384;51.214;9.202;2023-04-23T14:30:14;5.30;;;2.38;;
30617;SDS011;17384;51.214;9.202;2023-04-23T14:32:42;3.88;;;2.47;;
30617;SDS011;17384;51.214;9.202;2023-04-23T14:35:09;4.55;;;2.47;;
30617;SDS011;17384;51.214;9.202;2023-04-23T14:37:36;6.45;;;2.10;;
30617;SDS011;17384;51.214;9.202;2023-04-23T14:40:01;3.05;;;2.58;;
30617;SDS011;17384;51.214;9.202;2023-04-23T14:42:27;2.42;;;1.73;;
30617;SDS011;17384;51.214;9.202;2023-04-23T14:44:52;4.72;;;2.17;;
30617;SDS011;17384;51.214;9.202;2023-04-23T14:47:22;5.45;;;1.75;;
30617;SDS011;17384;51.214;9.202;2023-04-23T14:49:48;3.88;;;1.70;;
30617;SDS011;17384;51.214;9.202;2023-04-23T14:52:15;3.58;;;2.15;;